Juneau, AK (99801)

5:19 AM AKDT on March 25, 2017 (GMT -0800)
Last Frontier | | Change Station

Elev 20 ft 58.39 °N, 134.56 °W | Updated 11 minutes ago

Light Snow
Light Snow Mist
32.5 °F
Feels Like 32 °F
N
0.0
Wind Variable Wind from ESE

Today
High -- | Low -- °F
--% Chance of Precip.
Yesterday
High -- | Low -- °F
Precip. -- in
Pressure 29.54 in
Visibility 2.0 miles
Clouds Few 600 ft
Few 1500 ft
Overcast 2100 ft
Windchill 32 °F
Dew Point 32 °F
Humidity 96%
Rainfall 0.00 in
Snow Depth Not available.
6:44 AM 7:24 PM
Waning Crescent, 8% visible
METAR PAJN 251253Z 23003KT 2SM -SN BR FEW006 FEW015 OVC021 00/00 A2954 RMK AO2 SLP002 P0003 T00000000
Pressure 29.54 in
Visibility 2.0 miles
Clouds Few 600 ft
Few 1500 ft
Overcast 2100 ft
Windchill 32 °F
Dew Point 32 °F
Humidity 96%
Rainfall 0.00 in
Snow Depth Not available.
6:44 AM 7:24 PM
Waning Crescent, 8% visible
METAR PAJN 251253Z 23003KT 2SM -SN BR FEW006 FEW015 OVC021 00/00 A2954 RMK AO2 SLP002 P0003 T00000000

Get Severe Weather Alerts

Thanks for signing up!

Be on the lookout for a verification email in your inbox.

You'll start receiving the daily forecast at 8 AM.

×

10-Day Weather Forecast

Almanac

Astronomy

Mar. 25, 2017 Rise Set
Actual Time
Civil Twilight
Nautical Twilight
Astronomical Twilight
Moon
Length of Visible Light
Length of Day
Tomorrow will be .
, % of the Moon is Illuminated

Today's Extremes

State Highs State Lows

Community

WunderPhotos

Upload Photos

1,962,540 photos uploaded!

WunderBlog® & News

Nearby

Air Quality

  Air Quality AQ Index Pollutant
Not available.

Snow Depth

Station Depth Elevation

Earthquake Activity

City Distance Mag. Time & Date
Minimum magnitude displayed is 2.5.

Earthquake Activity

City Distance Mag. Time & Date
Minimum magnitude displayed is 2.5.

Coastal Water Temperatures

Place Temperature

Stations

Nearby Weather Stations

Station Location Temp. Windchill Dew Point Humidity Wind Precip. Elev Updated Type
                   

Watches & Warnings

There are currently no watches in effect.